Nearby Nevada METAR Reports

Sorted by Distance from Carson Valley - Minden, Nevada

 

KMEV - Minden, Nevada, USA
Distance from station: SSW 3mi, 5km
Updated: Fri, 24-May-2024 2:55am MDT
Overcast
Overcast
 Wind from E
Wind: E 5 mph, 7 km/h
Temperature: 41°F, 5°C
Wind Chill: 38°F, 3°C
Dew Point: 36°F, 2°C
Humidity: 81%
Barometer: 29.95 inHg, 1014.2 hPa
Clouds: Overcast
Visibility: 10 miles, 16 km
Cloud details: Overcast 7000 ft
2024/05/24 08:55 KMEV 240855Z AUTO 10004KT 10SM OVC070 05/02 A2995 RMK AO2
KCXP - Carson City, Nevada, USA
Distance from station: N 10mi, 16km
Updated: Fri, 24-May-2024 2:55am MDT
Mostly cloudy
Mostly cloudy
 Wind from calm
Wind: Calm
Temperature: 46°F, 8°C
Dew Point: 37°F, 3°C
Humidity: 71%
Barometer: 29.97 inHg, 1014.9 hPa
Clouds: Mostly cloudy
Visibility: 10 miles, 16 km
Cloud details: Mostly cloudy 8000 ft
2024/05/24 08:55 KCXP 240855Z AUTO 00000KT 10SM BKN080 08/03 A2997 RMK AO2
 
KTVL - South Lake Tahoe, California, USA
Distance from station: WSW 18mi, 29km
Updated: Fri, 24-May-2024 2:53am MDT
Few Clouds
Few Clouds
 Wind from S
Wind: S 3 mph, 6 km/h
Temperature: 37°F, 3°C
Dew Point: 36°F, 2°C
Humidity: 93%
Barometer: 30.00 inHg, 1015.9 hPa
Clouds: Few Clouds
Visibility: 10 miles, 16 km
Cloud details: Few Clouds 5500 ft
2024/05/24 08:53 KTVL 240853Z AUTO 17003KT 10SM FEW055 03/02 A3000 RMK AO2 SLP127 T00280017 58008
KTRK - Truckee Tahoe, California, USA
Distance from station: NW 29mi, 46km
Updated: Fri, 24-May-2024 2:55am MDT
Mist, Overcast
Mist, Overcast
 Wind from calm
Wind: Calm
Temperature: 36°F, 2°C
Dew Point: 36°F, 2°C
Humidity: 100%
Barometer: 30.00 inHg, 1015.9 hPa
Summary: Mist
Clouds: Overcast
Visibility: 3/4 mile, 1.2 km
Cloud details: Overcast 7000 ft
2024/05/24 08:55 KTRK 240855Z AUTO 00000KT 3/4SM BR OVC070 02/02 A3000 RMK AO2
 
KRNO - Reno, Nevada, USA
Distance from station: N 32mi, 51km
Updated: Fri, 24-May-2024 2:55am MDT
Mostly cloudy
Mostly cloudy
 Wind from WNW
Wind: WNW 5 mph, 7 km/h
Temperature: 54°F, 12°C
Dew Point: 36°F, 2°C
Humidity: 51%
Barometer: 29.95 inHg, 1014.2 hPa
Clouds: Mostly cloudy
Visibility: 10 miles, 16 km
Cloud details: Partly cloudy 9000 ft
Mostly cloudy 12000 ft
2024/05/24 08:55 KRNO 240855Z 29004KT 10SM SCT090 BKN120 12/02 A2995 RMK AO2 SLP104 T01170022 56006 $
KRTS - Reno/Stead, Nevada, USA
Distance from station: NNW 44mi, 71km
Updated: Fri, 24-May-2024 2:55am MDT
Partly cloudy
Partly cloudy
 Wind from N
Wind: N 6 mph, 9 km/h
Temperature: 41°F, 5°C
Wind Chill: 37°F, 3°C
Dew Point: 21°F, -6°C
Humidity: 45%
Barometer: 29.96 inHg, 1014.6 hPa
Clouds: Partly cloudy
Visibility: 10 miles, 16 km
Cloud details: Partly cloudy 8000 ft
2024/05/24 08:55 KRTS 240855Z AUTO 35005KT 10SM SCT080 05/M06 A2996 RMK AO2
 
KBAN - Bridgeport(Mcmwt, California, USA
Distance from station: SSE 49mi, 79km
Updated: Fri, 24-May-2024 2:52am MDT
Clear
Clear
 
Temperature: 36°F, 2°C
Dew Point: 27°F, -3°C
Humidity: 70%
Barometer: 30.00 inHg, 1015.9 hPa
Clouds: Clear
Visibility: 10 miles, 16 km
2024/05/24 08:52 KBAN 240852Z AUTO 10SM CLR 02/M03 A3000 RMK AO2 SLP116 T00171033 58006
KBLU - Emigrant Gap, California, USA
Distance from station: WNW 55mi, 89km
Updated: Fri, 24-May-2024 2:52am MDT
Clear
Clear
 Wind from calm
Wind: Calm
Temperature: 48°F, 9°C
Dew Point: 34°F, 1°C
Humidity: 58%
Barometer: 29.97 inHg, 1014.9 hPa
Clouds: Clear
Visibility: 10 miles, 16 km
2024/05/24 08:52 KBLU 240852Z AUTO 00000KT 10SM CLR 09/01 A2997 RMK AO2 SLP095 T00940011 56007
 
KPVF - Placerville, California, USA
Distance from station: WSW 60mi, 96km
Updated: Fri, 24-May-2024 2:55am MDT
Mostly cloudy
Mostly cloudy
 Wind from ESE
Wind: ESE 7 mph, 11 km/h
Temperature: 59°F, 15°C
Dew Point: 37°F, 3°C
Humidity: 45%
Barometer: 29.89 inHg, 1012.2 hPa
Clouds: Mostly cloudy
Visibility: 10 miles, 16 km
Cloud details: Mostly cloudy 6500 ft
2024/05/24 08:55 KPVF 240855Z AUTO 12006KT 10SM BKN065 15/03 A2989 RMK AO1
KNFL - Fallon Nas, Nevada, USA
Distance from station: ENE 61mi, 97km
Updated: Fri, 24-May-2024 2:56am MDT
Few Clouds
Few Clouds
 Wind from WNW
Wind: WNW 5 mph, 7 km/h
Temperature: 50°F, 10°C
Wind Chill: 48°F, 9°C
Dew Point: 21°F, -6°C
Humidity: 32%
Barometer: 29.91 inHg, 1012.9 hPa
Clouds: Few Clouds
Visibility: 10 miles, 16 km
Cloud details: Few Clouds 11000 ft
2024/05/24 08:56 KNFL 240856Z AUTO 30004KT 10SM FEW110 10/M06 A2991 RMK AO2 SLP102 T01001056 56006
 
KHTH - Hawthorne, Nevada, USA
Distance from station: ESE 68mi, 109km
Updated: Fri, 24-May-2024 2:55am MDT
Clear
Clear
 Wind from SW
Wind: SW 6 mph, 9 km/h
Temperature: 54°F, 12°C
Dew Point: 18°F, -8°C
Humidity: 24%
Barometer: 29.92 inHg, 1013.2 hPa
Clouds: Clear
Visibility: 10 miles, 16 km
2024/05/24 08:55 KHTH 240855Z AUTO 23005KT 10SM CLR 12/M08 A2992 RMK A01
KGOO - Grass Valley, California, USA
Distance from station: W 70mi, 112km
Updated: Fri, 24-May-2024 2:55am MDT
Few Clouds
Few Clouds
 Wind from E
Wind: E 5 mph, 7 km/h
Temperature: 59°F, 15°C
Dew Point: 36°F, 2°C
Humidity: 42%
Barometer: 29.88 inHg, 1011.9 hPa
Clouds: Few Clouds
Visibility: 10 miles, 16 km
Cloud details: Few Clouds 5500 ft
2024/05/24 08:55 KGOO 240855Z AUTO 10004KT 10SM FEW055 15/02 A2988 RMK A01
 
KAUN - Auburn Muni, California, USA
Distance from station: W 73mi, 118km
Updated: Fri, 24-May-2024 2:55am MDT
Clear
Clear
 Wind from ESE
Wind: ESE 6 mph, 9 km/h
Temperature: 61°F, 16°C
Dew Point: 43°F, 6°C
Humidity: 52%
Barometer: 29.85 inHg, 1010.8 hPa
Clouds: Clear
Visibility: 10 miles, 16 km
2024/05/24 08:55 KAUN 240855Z AUTO 12005KT 10SM CLR 16/06 A2985 RMK A01
KO22 - Columbia, California, USA
Distance from station: SSW 79mi, 127km
Updated: Fri, 24-May-2024 2:55am MDT
Partly cloudy
Partly cloudy
 Wind from calm
Wind: Calm
Temperature: 52°F, 11°C
Dew Point: 43°F, 6°C
Humidity: 72%
Barometer: 29.86 inHg, 1011.2 hPa
Clouds: Partly cloudy
Visibility: 10 miles, 16 km
Cloud details: Partly cloudy 6000 ft
2024/05/24 08:55 KO22 240855Z AUTO 00000KT 10SM SCT060 11/06 A2986 RMK A01
 
KLHM - Lincoln, California, USA
Distance from station: W 88mi, 141km
Updated: Fri, 24-May-2024 2:55am MDT
Clear
Clear
 Wind from SSE
Wind: SSE 8 mph, 13 km/h
Temperature: 59°F, 15°C
Dew Point: 43°F, 6°C
Humidity: 55%
Barometer: 29.80 inHg, 1009.1 hPa
Clouds: Clear
Visibility: 10 miles, 16 km
2024/05/24 08:55 KLHM 240855Z AUTO 16007KT 10SM CLR 15/06 A2980 RMK AO1
KBAB - Beale Afb/Marysv, California, USA
Distance from station: W 91mi, 147km
Updated: Fri, 24-May-2024 2:55am MDT
Haze, Clear
Haze, Clear
 Wind from SE
Wind: SE 8 mph, 13 km/h
Temperature: 59°F, 15°C
Dew Point: 45°F, 7°C
Humidity: 59%
Barometer: 29.79 inHg, 1008.8 hPa
Summary: Haze
Clouds: Clear
Visibility: 5 miles, 8 km
2024/05/24 08:55 KBAB 240855Z AUTO 13007KT 5SM HZ CLR 15/07 A2979 RMK AO2 SLP090 T01530071 53002 $
 
KMHR - Mather Field, California, USA
Distance from station: WSW 91mi, 147km
Updated: Fri, 24-May-2024 2:55am MDT
Clear
Clear
 Wind from SSE
Wind: SSE 9 mph, 15 km/h
Temperature: 55°F, 13°C
Dew Point: 45°F, 7°C
Humidity: 67%
Barometer: 29.81 inHg, 1009.5 hPa
Clouds: Clear
Visibility: 10 miles, 16 km
2024/05/24 08:55 KMHR 240855Z AUTO 16008KT 10SM CLR 13/07 A2981 RMK A01
KLOL - Lovelock, Nevada, USA
Distance from station: NE 94mi, 151km
Updated: Fri, 24-May-2024 2:53am MDT
Clear
Clear
 Wind from NNW
Wind: NNW 7 mph, 11 km/h
Temperature: 41°F, 5°C
Wind Chill: 36°F, 2°C
Dew Point: 21°F, -6°C
Humidity: 45%
Barometer: 29.93 inHg, 1013.5 hPa
Clouds: Clear
Visibility: 10 miles, 16 km
2024/05/24 08:53 KLOL 240853Z AUTO 34006KT 10SM CLR 05/M06 A2993 RMK AO2 SLP122 T00501056 56006
 
KMCC - Mcclellan Afb, California, USA
Distance from station: WSW 94mi, 151km
Updated: Fri, 24-May-2024 2:55am MDT
Clear
Clear
 Wind from SSE
Wind: SSE 10 mph, 17 km/h
Temperature: 57°F, 14°C
Dew Point: 46°F, 8°C
Humidity: 67%
Barometer: 29.82 inHg, 1009.8 hPa
Clouds: Clear
Visibility: 9 miles, 14 km
2024/05/24 08:55 KMCC 240855Z AUTO 15009KT 9SM CLR 14/08 A2982 RMK AO2
KMYV - Marysville, California, USA
Distance from station: W 99mi, 159km
Updated: Fri, 24-May-2024 2:53am MDT
Clear
Clear
 Wind from SSE
Wind: SSE 12 mph, 19 km/h
Temperature: 63°F, 17°C
Dew Point: 46°F, 8°C
Humidity: 56%
Barometer: 29.80 inHg, 1009.1 hPa
Clouds: Clear
Visibility: 10 miles, 16 km
2024/05/24 08:53 KMYV 240853Z AUTO 15010KT 10SM CLR 17/08 A2980 RMK AO2 SLP093 T01720078 50003
 
KSVE - Susanville Muni, California, USA
Distance from station: NNW 102mi, 164km
Updated: Fri, 26-Apr-2024 12:55am MDT
NOT Current
Light drizzle, Overcast
Light drizzle, Overcast
 Wind from W
Wind: W 14 mph, 22 km/h
Temperature: 46°F, 8°C
Wind Chill: 40°F, 4°C
Dew Point: 39°F, 4°C
Humidity: 76%
Barometer: 29.92 inHg, 1013.2 hPa
Summary: Light Drizzle
Clouds: Overcast
Visibility: 10 miles, 16 km
Cloud details: Few Clouds 4700 ft
Mostly cloudy 6000 ft
Overcast 7500 ft
2024/04/26 06:55 KSVE 260655Z AUTO 26012KT 10SM -DZ FEW047 BKN060 OVC075 08/04 A2992 RMK AO2
KSAC - Sacramento, California, USA
Distance from station: WSW 103mi, 165km
Updated: Fri, 24-May-2024 2:53am MDT
Clear
Clear
 Wind from S
Wind: S 7 mph, 11 km/h
Temperature: 55°F, 13°C
Dew Point: 46°F, 8°C
Humidity: 72%
Barometer: 29.82 inHg, 1009.8 hPa
Clouds: Clear
Visibility: 10 miles, 16 km
2024/05/24 08:53 KSAC 240853Z AUTO 18006KT 10SM CLR 13/08 A2982 RMK AO2 SLP097 T01330078 53004
 
KSMF - Sacramento/Metro, California, USA
Distance from station: WSW 104mi, 167km
Updated: Fri, 24-May-2024 2:53am MDT
Few Clouds
Few Clouds
 Wind from SE
Wind: SE 13 mph, 20 km/h
Temperature: 59°F, 15°C
Dew Point: 46°F, 8°C
Humidity: 63%
Barometer: 29.80 inHg, 1009.1 hPa
Clouds: Few Clouds
Visibility: 8 miles, 13 km
Cloud details: Few Clouds 25000 ft
2024/05/24 08:53 KSMF 240853Z 14011KT 8SM FEW250 15/08 A2980 RMK AO2 SLP091 T01500078 53003
KOVE - Oroville, California, USA
Distance from station: WNW 106mi, 171km
Updated: Fri, 24-May-2024 2:53am MDT
Clear
Clear
 Wind from SE
Wind: SE 6 mph, 9 km/h
Temperature: 64°F, 18°C
Dew Point: 45°F, 7°C
Humidity: 49%
Barometer: 29.80 inHg, 1009.1 hPa
Clouds: Clear
Visibility: 10 miles, 16 km
2024/05/24 08:53 KOVE 240853Z AUTO 13005KT 10SM CLR 18/07 A2980 RMK AO2 SLP093 T01830067 53001 $
 
KMMH - Mammoth/June Lak, California, USA
Distance from station: SSE 110mi, 177km
Updated: Fri, 24-May-2024 2:55am MDT
Clear
Clear
 Wind from calm
Wind: Calm
Temperature: 39°F, 4°C
Dew Point: 30°F, -1°C
Humidity: 70%
Barometer: 30.01 inHg, 1016.3 hPa
Clouds: Clear
Visibility: 10 miles, 16 km
2024/05/24 08:55 KMMH 240855Z AUTO 00000KT 10SM CLR 04/M01 A3001 RMK AO2 T00431015
KSCK - Stockton, California, USA
Distance from station: SW 114mi, 183km
Updated: Fri, 24-May-2024 2:55am MDT
Clear
Clear
 Wind from WNW
Wind: WNW 8 mph, 13 km/h
Temperature: 55°F, 13°C
Dew Point: 45°F, 7°C
Humidity: 67%
Barometer: 29.83 inHg, 1010.2 hPa
Clouds: Clear
Visibility: 10 miles, 16 km
2024/05/24 08:55 KSCK 240855Z AUTO 30007KT 10SM CLR 13/07 A2983 RMK AO2 SLP101 T01280067 50004
 
KEDU - Davis, California, USA
Distance from station: WSW 116mi, 187km
Updated: Fri, 24-May-2024 2:55am MDT
Clear
Clear
 
Temperature: 55°F, 13°C
Dew Point: 46°F, 8°C
Humidity: 72%
Barometer: 29.80 inHg, 1009.1 hPa
Clouds: Clear
Visibility: 10 miles, 16 km
2024/05/24 08:55 KEDU 240855Z AUTO 10SM CLR 13/08 A2980 RMK AO1
KMOD - Modesto, California, USA
Distance from station: SW 119mi, 191km
Updated: Fri, 24-May-2024 2:53am MDT
Clear
Clear
 Wind from N
Wind: N 7 mph, 11 km/h
Temperature: 59°F, 15°C
Dew Point: 41°F, 5°C
Humidity: 51%
Barometer: 29.82 inHg, 1009.8 hPa
Clouds: Clear
Visibility: 10 miles, 16 km
2024/05/24 08:53 KMOD 240853Z AUTO 35006KT 10SM CLR 15/05 A2982 RMK AO2 SLP096 T01500050 50001
 
KMER - Merced/Castle Af, California, USA
Distance from station: SSW 123mi, 198km
Updated: Thu, 23-May-2024 2:51pm MDT
NOT Current
Clear
Clear
 Wind from NW
Wind: NW 16 mph, 26 km/h
Temperature: 82°F, 28°C
Dew Point: 43°F, 6°C
Humidity: 25%
Barometer: 29.84 inHg, 1010.5 hPa
Clouds: Clear
Visibility: 10 miles, 16 km
2024/05/23 20:51 KMER 232051Z 32014KT 10SM CLR 28/06 A2984
KCIC - Chico Municipal, California, USA
Distance from station: WNW 124mi, 199km
Updated: Fri, 24-May-2024 2:55am MDT
Clear
Clear
 Wind from NE
Wind: NE 7 mph, 11 km/h
Temperature: 64°F, 18°C
Dew Point: 34°F, 1°C
Humidity: 32%
Barometer: 29.80 inHg, 1009.1 hPa
Clouds: Clear
Visibility: 10 miles, 16 km
2024/05/24 08:55 KCIC 240855Z AUTO 05006KT 10SM CLR 18/01 A2980 RMK AO1
 
KMCE - Merced, California, USA
Distance from station: SSW 128mi, 207km
Updated: Fri, 24-May-2024 2:53am MDT
Clear
Clear
 Wind from W
Wind: W 5 mph, 7 km/h
Temperature: 57°F, 14°C
Dew Point: 43°F, 6°C
Humidity: 59%
Barometer: 29.82 inHg, 1009.8 hPa
Clouds: Clear
Visibility: 10 miles, 16 km
2024/05/24 08:53 KMCE 240853Z AUTO 26004KT 10SM CLR 14/06 A2982 RMK AO2 SLP097 T01440056 58003
KVCB - Vacaville, California, USA
Distance from station: WSW 128mi, 207km
Updated: Fri, 24-May-2024 2:53am MDT
Clear
Clear
 Wind from SSW
Wind: SSW 10 mph, 17 km/h
Temperature: 57°F, 14°C
Dew Point: 45°F, 7°C
Humidity: 63%
Barometer: 29.80 inHg, 1009.1 hPa
Clouds: Clear
Visibility: 10 miles, 16 km
2024/05/24 08:53 KVCB 240853Z AUTO 21009KT 10SM CLR 14/07 A2980 RMK AO2 SLP089 T01440072 58006
 
KSUU - Travis Afb/Fairf, California, USA
Distance from station: WSW 130mi, 209km
Updated: Fri, 24-May-2024 2:55am MDT
Clear
Clear
 Wind from W
Wind: W 14 mph, 22 km/h
Temperature: 55°F, 13°C
Dew Point: 46°F, 8°C
Humidity: 72%
Barometer: 29.80 inHg, 1009.1 hPa
Clouds: Clear
Visibility: 10 miles, 16 km
2024/05/24 08:55 KSUU 240855Z AUTO 26012KT 10SM CLR 13/08 A2980 RMK AO2 PK WND 25027/35 SLP098 T01290076 56002 $
KBIH - Bishop, California, USA
Distance from station: SE 137mi, 221km
Updated: Fri, 24-May-2024 2:56am MDT
Clear
Clear
 Wind from NNW
Wind: NNW 10 mph, 17 km/h
Temperature: 57°F, 14°C
Dew Point: 25°F, -4°C
Humidity: 29%
Barometer: 29.86 inHg, 1011.2 hPa
Clouds: Clear
Visibility: 10 miles, 16 km
2024/05/24 08:56 KBIH 240856Z AUTO 33009KT 10SM CLR 14/M04 A2986 RMK AO2 SLP068 T01441039 58003
 
KMAE - Madera, California, USA
Distance from station: S 144mi, 231km
Updated: Fri, 24-May-2024 2:53am MDT
Clear
Clear
 Wind from NNW
Wind: NNW 7 mph, 11 km/h
Temperature: 59°F, 15°C
Dew Point: 43°F, 6°C
Humidity: 55%
Barometer: 29.84 inHg, 1010.5 hPa
Clouds: Clear
Visibility: 10 miles, 16 km
2024/05/24 08:53 KMAE 240853Z AUTO 33006KT 10SM CLR 15/06 A2984 RMK AO2 SLP102 T01500056 50000
KCCR - Concord, California, USA
Distance from station: WSW 145mi, 233km
Updated: Fri, 24-May-2024 2:53am MDT
Clear
Clear
 Wind from S
Wind: S 21 mph, 33 km/h, Gust: 33 mph, 54 km/h
Temperature: 54°F, 12°C
Dew Point: 46°F, 8°C
Humidity: 77%
Barometer: 29.86 inHg, 1011.2 hPa
Clouds: Clear
Visibility: 10 miles, 16 km
2024/05/24 08:53 KCCR 240853Z AUTO 19018G29KT 10SM CLR 12/08 A2986 RMK AO2 PK WND 18029/0853 SLP098 T01170078 58004
 
KLVK - Livermore, California, USA
Distance from station: SW 146mi, 236km
Updated: Fri, 24-May-2024 2:53am MDT
Clear
Clear
 Wind from W
Wind: W 7 mph, 11 km/h
Temperature: 48°F, 9°C
Wind Chill: 45°F, 7°C
Dew Point: 43°F, 6°C
Humidity: 82%
Barometer: 29.90 inHg, 1012.5 hPa
Clouds: Clear
Visibility: 7 miles, 11 km
2024/05/24 08:53 KLVK 240853Z AUTO 27006KT 7SM CLR 09/06 A2990 RMK AO2 SLP120 T00890061 58004
KAPC - Napa, California, USA
Distance from station: WSW 150mi, 241km
Updated: Fri, 24-May-2024 2:54am MDT
Clear
Clear
 Wind from WSW
Wind: WSW 8 mph, 13 km/h
Temperature: 52°F, 11°C
Dew Point: 46°F, 8°C
Humidity: 82%
Barometer: 29.87 inHg, 1011.5 hPa
Clouds: Clear
Visibility: 10 miles, 16 km
2024/05/24 08:54 KAPC 240854Z AUTO 25007KT 10SM CLR 11/08 A2987 RMK AO2 RAE53 SLP106 P0000 60000 T01060078 58003
 
KRBL - Red Bluff, California, USA
Distance from station: WNW 155mi, 249km
Updated: Fri, 24-May-2024 2:54am MDT
Clear
Clear
 Wind from NW
Wind: NW 6 mph, 9 km/h
Temperature: 57°F, 14°C
Dew Point: 39°F, 4°C
Humidity: 51%
Barometer: 29.80 inHg, 1009.1 hPa
Clouds: Clear
Visibility: 10 miles, 16 km
2024/05/24 08:54 KRBL 240854Z AUTO 31005KT 10SM CLR 14/04 A2980 RMK AO2 SLP087 T01440044 50001
KFAT - Fresno, California, USA
Distance from station: S 156mi, 251km
Updated: Fri, 24-May-2024 2:53am MDT
Partly cloudy
Partly cloudy
 Wind from NNW
Wind: NNW 8 mph, 13 km/h
Temperature: 64°F, 18°C
Dew Point: 43°F, 6°C
Humidity: 46%
Barometer: 29.83 inHg, 1010.2 hPa
Clouds: Partly cloudy
Visibility: 10 miles, 16 km
Cloud details: Partly cloudy 20000 ft
2024/05/24 08:53 KFAT 240853Z 33007KT 10SM SCT200 18/06 A2983 RMK AO2 SLP098 T01780056 58002
 
KTPH - Tonopah, Nevada, USA
Distance from station: ESE 158mi, 254km
Updated: Fri, 24-May-2024 2:56am MDT
Partly cloudy
Partly cloudy
 Wind from NW
Wind: NW 7 mph, 11 km/h
Temperature: 54°F, 12°C
Dew Point: 16°F, -9°C
Humidity: 22%
Barometer: 29.92 inHg, 1013.2 hPa
Clouds: Partly cloudy
Visibility: 10 miles, 16 km
Cloud details: Partly cloudy 11000 ft
2024/05/24 08:56 KTPH 240856Z AUTO 32006KT 10SM SCT110 12/M09 A2992 RMK AO2 SLP078 T01171089 58008
KFCH - Fresno Chandler, California, USA
Distance from station: S 161mi, 258km
Updated: Fri, 24-May-2024 2:55am MDT
Clear
Clear
 Wind from N
Wind: N 6 mph, 9 km/h
Temperature: 63°F, 17°C
Dew Point: 43°F, 6°C
Humidity: 49%
Barometer: 29.84 inHg, 1010.5 hPa
Clouds: Clear
Visibility: 10 miles, 16 km
2024/05/24 08:55 KFCH 240855Z AUTO 36005KT 10SM CLR 17/06 A2984 RMK A01
 
KHWD - Hayward, California, USA
Distance from station: SW 161mi, 259km
Updated: Fri, 24-May-2024 2:54am MDT
Overcast
Overcast
 Wind from WSW
Wind: WSW 9 mph, 15 km/h
Temperature: 55°F, 13°C
Dew Point: 46°F, 8°C
Humidity: 72%
Barometer: 29.92 inHg, 1013.2 hPa
Clouds: Overcast
Visibility: 10 miles, 16 km
Cloud details: Overcast 1700 ft
2024/05/24 08:54 KHWD 240854Z AUTO 24008KT 10SM OVC017 13/08 A2992 RMK AO2 SLP139 T01280078 58005
KOAK - Oakland, California, USA
Distance from station: SW 164mi, 264km
Updated: Fri, 24-May-2024 2:53am MDT
Partly cloudy
Partly cloudy
 Wind from WSW
Wind: WSW 10 mph, 17 km/h
Temperature: 54°F, 12°C
Dew Point: 48°F, 9°C
Humidity: 82%
Barometer: 29.91 inHg, 1012.9 hPa
Clouds: Partly cloudy
Visibility: 10 miles, 16 km
Cloud details: Partly cloudy 1500 ft
Partly cloudy 20000 ft
2024/05/24 08:53 KOAK 240853Z 25009KT 10SM SCT015 SCT200 12/09 A2991 RMK AO2 SLP129 T01170094 58003
 
KWMC - Winnemucca, Nevada, USA
Distance from station: NE 164mi, 264km
Updated: Fri, 24-May-2024 2:56am MDT
Clear
Clear
 Wind from ENE
Wind: ENE 10 mph, 17 km/h
Temperature: 46°F, 8°C
Wind Chill: 41°F, 5°C
Dew Point: 28°F, -2°C
Humidity: 50%
Barometer: 29.96 inHg, 1014.6 hPa
Clouds: Clear
Visibility: 10 miles, 16 km
2024/05/24 08:56 KWMC 240856Z AUTO 07009KT 10SM CLR 08/M02 A2996 RMK AO2 SLP120 T00831022 58004 $
KDVO - Novato/Gnoss Fld, California, USA
Distance from station: WSW 165mi, 265km
Updated: Fri, 24-May-2024 2:55am MDT
Clear
Clear
 Wind from calm
Wind: Calm
Temperature: 48°F, 9°C
Dew Point: 48°F, 9°C
Humidity: 100%
Barometer: 29.87 inHg, 1011.5 hPa
Clouds: Clear
Visibility: 10 miles, 16 km
2024/05/24 08:55 KDVO 240855Z AUTO 00000KT 10SM CLR 09/09 A2987 RMK AO2
 
KO69 - Petaluma, California, USA
Distance from station: WSW 165mi, 265km
Updated: Fri, 24-May-2024 2:55am MDT
Mostly cloudy
Mostly cloudy
 Wind from calm
Wind: Calm
Temperature: 43°F, 6°C
Dew Point: 43°F, 6°C
Humidity: 100%
Barometer: 29.89 inHg, 1012.2 hPa
Clouds: Mostly cloudy
Visibility: 9 miles, 14 km
Cloud details: Mostly cloudy 2500 ft
Mostly cloudy 3300 ft
2024/05/24 08:55 KO69 240855Z AUTO 00000KT 9SM BKN025 BKN033 06/06 A2989 RMK A01
KRHV - San Jose/Reid, California, USA
Distance from station: SW 165mi, 265km
Updated: Thu, 23-May-2024 10:55pm MDT
NOT Current
Mostly cloudy
Mostly cloudy
 Wind from NNW
Wind: NNW 5 mph, 7 km/h
Temperature: 55°F, 13°C
Dew Point: 45°F, 7°C
Humidity: 67%
Barometer: 29.92 inHg, 1013.2 hPa
Clouds: Mostly cloudy
Visibility: 10 miles, 16 km
Cloud details: Mostly cloudy 12000 ft
2024/05/24 04:55 KRHV 240455Z 33004KT 10SM BKN120 13/07 A2992 RMK LAST
 
KSJC - San Jose, California, USA
Distance from station: SW 166mi, 267km
Updated: Fri, 24-May-2024 2:53am MDT
Clear
Clear
 Wind from SE
Wind: SE 8 mph, 13 km/h
Temperature: 54°F, 12°C
Dew Point: 45°F, 7°C
Humidity: 72%
Barometer: 29.92 inHg, 1013.2 hPa
Clouds: Clear
Visibility: 9 miles, 14 km
2024/05/24 08:53 KSJC 240853Z AUTO 14007KT 9SM CLR 12/07 A2992 RMK AO2 SLP131 T01220072 58003
KE16 - San Martin, California, USA
Distance from station: SW 169mi, 273km
Updated: Fri, 24-May-2024 2:55am MDT
Overcast
Overcast
 Wind from ESE
Wind: ESE 7 mph, 11 km/h
Temperature: 50°F, 10°C
Wind Chill: 47°F, 8°C
Dew Point: 46°F, 8°C
Humidity: 88%
Barometer: 29.96 inHg, 1014.6 hPa
Clouds: Overcast
Visibility: 7 miles, 11 km
Cloud details: Overcast 1200 ft
2024/05/24 08:55 KE16 240855Z AUTO 12006KT 7SM OVC012 10/08 A2996 RMK AO2
 
KPAO - Palo Alto, California, USA
Distance from station: SW 169mi, 273km
Updated: Thu, 23-May-2024 9:47pm MDT
NOT Current
Clear
Clear
 Wind from NNW
Wind: NNW 13 mph, 20 km/h
Temperature: 55°F, 13°C
Dew Point: 45°F, 7°C
Humidity: 67%
Barometer: 29.91 inHg, 1012.9 hPa
Clouds: Clear
Visibility: 10 miles, 16 km
2024/05/24 03:47 KPAO 240347Z 33011KT 10SM SKC 13/07 A2991 RMK LAST
KNUQ - Moffett Nas/Mtn, California, USA
Distance from station: SW 170mi, 273km
Updated: Fri, 24-May-2024 2:55am MDT
Clear
Clear
 Wind from SE
Wind: SE 8 mph, 13 km/h
Temperature: 54°F, 12°C
Dew Point: 46°F, 8°C
Humidity: 77%
Barometer: 29.92 inHg, 1013.2 hPa
Clouds: Clear
Visibility: 7 miles, 11 km
2024/05/24 08:55 KNUQ 240855Z AUTO 13007KT 7SM CLR 12/08 A2992 RMK AO2
 
KRDD - Redding, California, USA
Distance from station: NW 171mi, 275km
Updated: Fri, 24-May-2024 2:53am MDT
Clear
Clear
 Wind from NNE
Wind: NNE 5 mph, 7 km/h
Temperature: 61°F, 16°C
Dew Point: 45°F, 7°C
Humidity: 55%
Barometer: 29.79 inHg, 1008.8 hPa
Clouds: Clear
Visibility: 10 miles, 16 km
2024/05/24 08:53 KRDD 240853Z AUTO 02004KT 10SM CLR 16/07 A2979 RMK AO2 SLP082 T01560072 50002
KSTS - Santa Rosa, California, USA
Distance from station: WSW 171mi, 275km
Updated: Fri, 24-May-2024 2:53am MDT
Clear
Clear
 Wind from calm
Wind: Calm
Temperature: 48°F, 9°C
Dew Point: 45°F, 7°C
Humidity: 87%
Barometer: 29.87 inHg, 1011.5 hPa
Clouds: Clear
Visibility: 9 miles, 14 km
2024/05/24 08:53 KSTS 240853Z AUTO 00000KT 9SM CLR 09/07 A2987 RMK AO2 SLP107 T00890072 58001
 
KSQL - San Carlos Airpo, California, USA
Distance from station: SW 173mi, 278km
Updated: Fri, 24-May-2024 2:55am MDT
Haze, Clear
Haze, Clear
 Wind from WNW
Wind: WNW 8 mph, 13 km/h
Temperature: 52°F, 11°C
Dew Point: 46°F, 8°C
Humidity: 82%
Barometer: 29.93 inHg, 1013.5 hPa
Summary: Haze
Clouds: Clear
Visibility: 5 miles, 8 km
2024/05/24 08:55 KSQL 240855Z AUTO 29007KT 5SM HZ CLR 11/08 A2993 RMK AO2
KCVH - Hollister Muni, California, USA
Distance from station: SSW 174mi, 280km
Updated: Fri, 24-May-2024 2:55am MDT
Clear
Clear
 Wind from calm
Wind: Calm
Temperature: 46°F, 8°C
Dew Point: 43°F, 6°C
Humidity: 87%
Barometer: 29.96 inHg, 1014.6 hPa
Clouds: Clear
Visibility: 8 miles, 13 km
2024/05/24 08:55 KCVH 240855Z AUTO 00000KT 8SM CLR 08/06 A2996 RMK A01
 
KSFO - San Francisco, California, USA
Distance from station: SW 174mi, 280km
Updated: Fri, 24-May-2024 2:56am MDT
Mostly cloudy
Mostly cloudy
 Wind from WSW
Wind: WSW 15 mph, 24 km/h
Temperature: 54°F, 12°C
Dew Point: 46°F, 8°C
Humidity: 77%
Barometer: 29.91 inHg, 1012.9 hPa
Clouds: Mostly cloudy
Visibility: 10 miles, 16 km
Cloud details: Few Clouds 900 ft
Mostly cloudy 1400 ft
2024/05/24 08:56 KSFO 240856Z 25013KT 10SM FEW009 BKN014 12/08 A2991 RMK AO2 SLP128 T01170078 58005 $
KAAT - Alturas, California, USA
Distance from station: NNW 175mi, 281km
Updated: Tue, 21-May-2024 4:55pm MDT
NOT Current
Clear
Clear
 Wind from WNW
Wind: WNW 6 mph, 9 km/h
Temperature: 68°F, 20°C
Dew Point: 21°F, -6°C
Humidity: 17%
Barometer: 30.05 inHg, 1017.6 hPa
Clouds: Clear
Visibility: 10 miles, 16 km
2024/05/21 22:55 KAAT 212255Z AUTO 29005KT 10SM CLR 20/M06 A3005 RMK AO2 SLP162 T02001056 $
 
KBAM - Battle Mtn (vor), Nevada, USA
Distance from station: NE 182mi, 294km
Updated: Fri, 24-May-2024 2:55am MDT
Clear
Clear
 Wind from calm
Wind: Calm
Temperature: 39°F, 4°C
Dew Point: 28°F, -2°C
Humidity: 65%
Barometer: 29.99 inHg, 1015.6 hPa
Clouds: Clear
Visibility: 10 miles, 16 km
2024/05/24 08:55 KBAM 240855Z AUTO 00000KT 10SM CLR 04/M02 A2999 RMK AO1
KHAF - Half Moon Bay, California, USA
Distance from station: SW 184mi, 296km
Updated: Fri, 24-May-2024 2:55am MDT
Mist, Overcast
Mist, Overcast
 Wind from NW
Wind: NW 10 mph, 17 km/h
Temperature: 52°F, 11°C
Dew Point: 48°F, 9°C
Humidity: 88%
Barometer: 29.94 inHg, 1013.9 hPa
Summary: Mist
Clouds: Overcast
Visibility: 5 miles, 8 km
Cloud details: Overcast 1300 ft
2024/05/24 08:55 KHAF 240855Z AUTO 31009KT 5SM BR OVC013 11/09 A2994 RMK AO2
 
KWVI - Watsonville, California, USA
Distance from station: SW 184mi, 296km
Updated: Fri, 24-May-2024 2:53am MDT
Overcast
Overcast
 Wind from calm
Wind: Calm
Temperature: 52°F, 11°C
Dew Point: 46°F, 8°C
Humidity: 82%
Barometer: 29.94 inHg, 1013.9 hPa
Clouds: Overcast
Visibility: 9 miles, 14 km
Cloud details: Mostly cloudy 1200 ft
Overcast 1700 ft
2024/05/24 08:53 KWVI 240853Z AUTO 00000KT 9SM BKN012 OVC017 11/08 A2994 RMK AO2 SLP139 T01110083 57005
KUKI - Ukiah, California, USA
Distance from station: W 187mi, 300km
Updated: Fri, 24-May-2024 2:56am MDT
Clear
Clear
 Wind from calm
Wind: Calm
Temperature: 54°F, 12°C
Dew Point: 39°F, 4°C
Humidity: 58%
Barometer: 29.88 inHg, 1011.9 hPa
Clouds: Clear
Visibility: 10 miles, 16 km
2024/05/24 08:56 KUKI 240856Z AUTO 00000KT 10SM CLR 12/04 A2988 RMK AO2 SLP111 T01220044 58005
 
KHJO - Hanford, California, USA
Distance from station: S 188mi, 303km
Updated: Fri, 24-May-2024 2:53am MDT
Clear
Clear
 Wind from calm
Wind: Calm
Temperature: 61°F, 16°C
Dew Point: 48°F, 9°C
Humidity: 63%
Barometer: 29.84 inHg, 1010.5 hPa
Clouds: Clear
Visibility: 10 miles, 16 km
2024/05/24 08:53 KHJO 240853Z AUTO 00000KT 10SM CLR 16/09 A2984 RMK AO2 SLP105 T01560089 58002
KNLC - Lemoore Nas/Reev, California, USA
Distance from station: S 188mi, 303km
Updated: Fri, 24-May-2024 2:56am MDT
Clear
Clear
 Wind from N
Wind: N 6 mph, 9 km/h
Temperature: 59°F, 15°C
Dew Point: 39°F, 4°C
Humidity: 48%
Barometer: 29.83 inHg, 1010.2 hPa
Clouds: Clear
Visibility: 10 miles, 16 km
2024/05/24 08:56 KNLC 240856Z AUTO 36005KT 10SM CLR 15/04 A2983 RMK AO2 SLP101 T01500044 56003
 
KVIS - Visalia Muni, California, USA
Distance from station: S 189mi, 304km
Updated: Fri, 24-May-2024 2:56am MDT
Clear
Clear
 Wind from NNW
Wind: NNW 6 mph, 9 km/h
Temperature: 63°F, 17°C
Dew Point: 45°F, 7°C
Humidity: 52%
Barometer: 29.84 inHg, 1010.5 hPa
Clouds: Clear
Visibility: 10 miles, 16 km
2024/05/24 08:56 KVIS 240856Z AUTO 33005KT 10SM CLR 17/07 A2984 RMK AO2 SLP103 T01720072 58002
KSNS - Salinas, California, USA
Distance from station: SSW 193mi, 311km
Updated: Fri, 24-May-2024 2:53am MDT
Overcast
Overcast
 Wind from W
Wind: W 13 mph, 20 km/h
Temperature: 54°F, 12°C
Dew Point: 45°F, 7°C
Humidity: 72%
Barometer: 29.96 inHg, 1014.6 hPa
Clouds: Overcast
Visibility: 9 miles, 14 km
Cloud details: Overcast 1700 ft
2024/05/24 08:53 KSNS 240853Z AUTO 27011KT 9SM OVC017 12/07 A2996 RMK AO2 SLP154 T01170072 56006
 
K05U - Eureka, Nevada, USA
Distance from station: ENE 203mi, 326km
Updated: Fri, 24-May-2024 2:50am MDT

 Wind from calm
Wind: Calm
Temperature: 46°F, 8°C
Dew Point: 23°F, -5°C
Humidity: 40%
Barometer: 30.01 inHg, 1016.3 hPa
Visibility: 10 miles, 16 km
2024/05/24 08:50 K05U 240850Z AUTO 00000KT 10SM 08/M05 A3001 RMK A01
KP68 - Eureka, Nevada, USA
Distance from station: ENE 203mi, 326km
Updated: Fri, 24-May-2024 2:53am MDT

 Wind from S
Wind: S 3 mph, 6 km/h
Temperature: 46°F, 8°C
Dew Point: 25°F, -4°C
Humidity: 43%
Barometer: 29.98 inHg, 1015.2 hPa
2024/05/24 08:53 KP68 240853Z AUTO 19003KT 08/M04 A2998 RMK AO1 SLP104 T00781044 58010
 
KMRY - Monterey, California, USA
Distance from station: SW 206mi, 331km
Updated: Fri, 24-May-2024 2:54am MDT
Overcast
Overcast
 Wind from W
Wind: W 8 mph, 13 km/h
Temperature: 54°F, 12°C
Dew Point: 46°F, 8°C
Humidity: 77%
Barometer: 29.97 inHg, 1014.9 hPa
Clouds: Overcast
Visibility: 10 miles, 16 km
Cloud details: Overcast 1500 ft
2024/05/24 08:54 KMRY 240854Z AUTO 26007KT 10SM OVC015 12/08 A2997 RMK AO2 SLP162 T01170078 56007
KO54 - Weaverville, California, USA
Distance from station: NW 207mi, 332km
Updated: Fri, 24-May-2024 2:55am MDT
Clear
Clear
 Wind from calm
Wind: Calm
Temperature: 46°F, 8°C
Dew Point: 37°F, 3°C
Humidity: 71%
Barometer: 29.92 inHg, 1013.2 hPa
Clouds: Clear
Visibility: 10 miles, 16 km
2024/05/24 08:55 KO54 240855Z AUTO 00000KT 10SM CLR 08/03 A2992 RMK A01
 
KO86 - Trinity Center, California, USA
Distance from station: NW 207mi, 333km
Updated: Fri, 24-May-2024 2:55am MDT
Clear
Clear
 Wind from W
Wind: W 6 mph, 9 km/h
Temperature: 48°F, 9°C
Wind Chill: 45°F, 7°C
Dew Point: 34°F, 1°C
Humidity: 58%
Barometer: 29.91 inHg, 1012.9 hPa
Clouds: Clear
Visibility: 10 miles, 16 km
2024/05/24 08:55 KO86 240855Z AUTO 27005KT 10SM CLR 09/01 A2991 RMK A01
KMHS - Mount Shasta, California, USA
Distance from station: NW 209mi, 336km
Updated: Fri, 24-May-2024 2:56am MDT
Clear
Clear
 Wind from calm
Wind: Calm
Temperature: 48°F, 9°C
Dew Point: 36°F, 2°C
Humidity: 62%
Barometer: 29.92 inHg, 1013.2 hPa
Clouds: Clear
2024/05/24 08:56 KMHS 240856Z AUTO 00000KT CLR 09/02 A2992 RMK AO2 SLP133 T00890017 57006 $
 
KPTV - Porterville, California, USA
Distance from station: S 212mi, 341km
Updated: Fri, 24-May-2024 2:56am MDT
Clear
Clear
 Wind from SSE
Wind: SSE 6 mph, 9 km/h
Temperature: 61°F, 16°C
Dew Point: 45°F, 7°C
Humidity: 55%
Barometer: 29.86 inHg, 1011.2 hPa
Clouds: Clear
Visibility: 10 miles, 16 km
2024/05/24 08:56 KPTV 240856Z AUTO 15005KT 10SM CLR 16/07 A2986 RMK AO2 SLP108 T01560072 58000
KLKV - Lakeview, Oregon, USA
Distance from station: N 219mi, 353km
Updated: Fri, 24-May-2024 2:53am MDT
Clear
Clear
 Wind from NW
Wind: NW 5 mph, 7 km/h
Barometer: 29.96 inHg, 1014.6 hPa
Clouds: Clear
Visibility: 10 miles, 16 km
2024/05/24 08:53 KLKV 240853Z AUTO 31004KT 10SM CLR A2996 RMK AO2 SLPNO 57009 FZRANO $
 
KSIY - Montague/Siskiyo, California, USA
Distance from station: NW 237mi, 382km
Updated: Fri, 24-May-2024 2:53am MDT
Clear
Clear
 Wind from ENE
Wind: ENE 7 mph, 11 km/h
Temperature: 45°F, 7°C
Wind Chill: 41°F, 5°C
Dew Point: 36°F, 2°C
Humidity: 71%
Barometer: 29.94 inHg, 1013.9 hPa
Clouds: Clear
Visibility: 10 miles, 16 km
2024/05/24 08:53 KSIY 240853Z AUTO 06006KT 10SM CLR 07/02 A2994 RMK AO2 SLP140 T00720017 58004
KPRB - Paso Robles, California, USA
Distance from station: SSW 238mi, 383km
Updated: Fri, 24-May-2024 2:53am MDT
Clear
Clear
 Wind from W
Wind: W 7 mph, 11 km/h
Temperature: 46°F, 8°C
Wind Chill: 42°F, 6°C
Dew Point: 43°F, 6°C
Humidity: 87%
Barometer: 29.93 inHg, 1013.5 hPa
Clouds: Clear
Visibility: 10 miles, 16 km
2024/05/24 08:53 KPRB 240853Z AUTO 28006KT 10SM CLR 08/06 A2993 RMK AO2 SLP130 T00830056 58001
 
KLMT - Klamath Falls, Oregon, USA
Distance from station: NNW 239mi, 385km
Updated: Fri, 24-May-2024 2:53am MDT
Clear
Clear
 Wind from E
Wind: E 3 mph, 6 km/h
Temperature: 37°F, 3°C
Dew Point: 32°F, 0°C
Humidity: 81%
Barometer: 29.95 inHg, 1014.2 hPa
Clouds: Clear
Visibility: 10 miles, 16 km
2024/05/24 08:53 KLMT 240853Z AUTO 09003KT 10SM CLR 03/00 A2995 RMK AO2 SLP126 T00280000 58007
KEKO - Elko, Nevada, USA
Distance from station: ENE 242mi, 390km
Updated: Tue, 21-May-2024 4:56pm MDT
NOT Current
Clear
Clear
 Wind from varies
Wind: varies 6 mph, 9 km/h
Temperature: 64°F, 18°C
Dew Point: 19°F, -7°C
Humidity: 18%
Barometer: 30.05 inHg, 1017.6 hPa
Clouds: Clear
Visibility: 10 miles, 16 km
2024/05/21 22:56 KEKO 212256Z AUTO VRB05KT 10SM CLR 18/M07 A3005 RMK AO2 SLP163 T01781067 TSNO
 
KBFL - Bakersfield, California, USA
Distance from station: S 252mi, 405km
Updated: Fri, 24-May-2024 2:54am MDT
Clear
Clear
 Wind from N
Wind: N 6 mph, 9 km/h
Temperature: 66°F, 19°C
Dew Point: 39°F, 4°C
Humidity: 37%
Barometer: 29.84 inHg, 1010.5 hPa
Clouds: Clear
Visibility: 10 miles, 16 km
2024/05/24 08:54 KBFL 240854Z 36005KT 10SM CLR 19/04 A2984 RMK AO2 SLP099 T01940044 56003
KFOT - Fortuna, California, USA
Distance from station: WNW 256mi, 413km
Updated: Fri, 24-May-2024 2:55am MDT
Mostly cloudy
Mostly cloudy
 Wind from calm
Wind: Calm
Temperature: 46°F, 8°C
Dew Point: 46°F, 8°C
Humidity: 100%
Barometer: 30.00 inHg, 1015.9 hPa
Clouds: Mostly cloudy
Visibility: 7 miles, 11 km
Cloud details: Mostly cloudy 1700 ft
2024/05/24 08:55 KFOT 240855Z AUTO 00000KT 7SM BKN017 08/08 A3000 RMK AO1
 
KNID - China Lake (naf), California, USA
Distance from station: SSE 259mi, 417km
Updated: Fri, 24-May-2024 2:56am MDT
Clear
Clear
 Wind from SW
Wind: SW 12 mph, 19 km/h
Temperature: 70°F, 21°C
Dew Point: 37°F, 3°C
Humidity: 31%
Barometer: 29.72 inHg, 1006.4 hPa
Clouds: Clear
Visibility: 10 miles, 16 km
2024/05/24 08:56 KNID 240856Z AUTO 23010KT 10SM CLR 21/03 A2972 RMK AO2 SLP043 T02060028 58002 $
KDRA - Desert R/Mercury, Nevada, USA
Distance from station: SE 262mi, 421km
Updated: Fri, 24-May-2024 2:53am MDT
Clear
Clear
 Wind from NNW
Wind: NNW 6 mph, 9 km/h
Temperature: 64°F, 18°C
Dew Point: 25°F, -4°C
Humidity: 22%
Barometer: 29.77 inHg, 1008.1 hPa
Clouds: Clear
Visibility: 10 miles, 16 km
2024/05/24 08:53 KDRA 240853Z AUTO 34005KT 10SM CLR 18/M04 A2977 RMK AO2 SLP037 T01831039 58004
 
KELY - Ely, Nevada, USA
Distance from station: E 262mi, 421km
Updated: Fri, 24-May-2024 2:53am MDT
Overcast
Overcast
 Wind from ENE
Wind: ENE 5 mph, 7 km/h
Temperature: 45°F, 7°C
Wind Chill: 42°F, 6°C
Dew Point: 18°F, -8°C
Humidity: 34%
Barometer: 30.03 inHg, 1016.9 hPa
Clouds: Overcast
Visibility: 10 miles, 16 km
Cloud details: Overcast 10000 ft
2024/05/24 08:53 KELY 240853Z AUTO 07004KT 10SM OVC100 07/M08 A3003 RMK AO2 SLP111 T00671083 51000
KREO - Rome, Oregon, USA
Distance from station: NNE 263mi, 424km
Updated: Fri, 24-May-2024 2:52am MDT

 Wind from S
Wind: S 3 mph, 6 km/h
Temperature: 34°F, 1°C
Dew Point: 28°F, -2°C
Humidity: 81%
Barometer: 29.96 inHg, 1014.6 hPa
2024/05/24 08:52 KREO 240852Z AUTO 19003KT 01/M02 A2996 RMK AO1 SLP144 T00111017 58009
 
KACV - Arcata/Eureka, California, USA
Distance from station: WNW 268mi, 431km
Updated: Fri, 24-May-2024 3:05am MDT
Overcast
Overcast
 Wind from calm
Wind: Calm
Temperature: 48°F, 9°C
Dew Point: 46°F, 8°C
Humidity: 94%
Barometer: 30.00 inHg, 1015.9 hPa
Clouds: Overcast
Visibility: 10 miles, 16 km
Cloud details: Mostly cloudy 900 ft
Overcast 1600 ft
2024/05/24 09:05 KACV 240905Z AUTO 00000KT 10SM BKN009 OVC016 09/08 A3000 RMK AO2 T00940078
KSBP - San Luis Obispo, California, USA
Distance from station: S 268mi, 431km
Updated: Fri, 24-May-2024 2:56am MDT
Overcast
Overcast
 Wind from calm
Wind: Calm
Temperature: 55°F, 13°C
Dew Point: 46°F, 8°C
Humidity: 72%
Barometer: 29.95 inHg, 1014.2 hPa
Clouds: Overcast
Visibility: 10 miles, 16 km
Cloud details: Overcast 1400 ft
2024/05/24 08:56 KSBP 240856Z AUTO 00000KT 10SM OVC014 13/08 A2995 RMK AO2 SLP141 T01330083 58009
 
KINS - Indian Springs, Nevada, USA
Distance from station: SE 279mi, 449km
Updated: Fri, 24-May-2024 2:55am MDT
Clear
Clear
 Wind from SE
Wind: SE 3 mph, 6 km/h
Temperature: 66°F, 19°C
Dew Point: 21°F, -6°C
Humidity: 18%
Barometer: 29.76 inHg, 1007.8 hPa
Clouds: Clear
Visibility: 10 miles, 16 km
2024/05/24 08:55 KINS 240855Z AUTO 13003KT 10SM CLR 19/M06 A2976 RMK AO2 SLP033 T01931056 58004 $
KTSP - Tehachapi, California, USA
Distance from station: SSE 279mi, 449km
Updated: Fri, 24-May-2024 2:55am MDT
Clear
Clear
 Wind from WNW
Wind: WNW 10 mph, 17 km/h
Temperature: 54°F, 12°C
Dew Point: 37°F, 3°C
Humidity: 54%
Barometer: 29.95 inHg, 1014.2 hPa
Clouds: Clear
Visibility: 10 miles, 16 km
2024/05/24 08:55 KTSP 240855Z AUTO 30009KT 10SM CLR 12/03 A2995 RMK AO2
 
KMFR - Medford, Oregon, USA
Distance from station: NW 284mi, 457km
Updated: Fri, 24-May-2024 2:53am MDT
Clear
Clear
 Wind from calm
Wind: Calm
Temperature: 54°F, 12°C
Dew Point: 39°F, 4°C
Humidity: 58%
Barometer: 29.95 inHg, 1014.2 hPa
Clouds: Clear
Visibility: 10 miles, 16 km
2024/05/24 08:53 KMFR 240853Z AUTO 00000KT 10SM CLR 12/04 A2995 RMK AO2 SLP136 T01170044 58006
KMHV - Mojave, California, USA
Distance from station: SSE 288mi, 463km
Updated: Fri, 24-May-2024 2:40am MDT
Clear
Clear
 Wind from WNW
Wind: WNW 14 mph, 22 km/h, Gust: 22 mph, 35 km/h
Temperature: 64°F, 18°C
Dew Point: 36°F, 2°C
Humidity: 34%
Barometer: 29.83 inHg, 1010.2 hPa
Clouds: Clear
Visibility: 10 miles, 16 km
2024/05/24 08:40 KMHV 240840Z AUTO 30012G19KT 10SM CLR 18/02 A2983 RMK AO2
 
KSMX - Santa Maria, California, USA
Distance from station: S 289mi, 465km
Updated: Fri, 24-May-2024 2:51am MDT
Overcast
Overcast
 Wind from W
Wind: W 6 mph, 9 km/h
Temperature: 52°F, 11°C
Dew Point: 48°F, 9°C
Humidity: 88%
Barometer: 29.97 inHg, 1014.9 hPa
Clouds: Overcast
Visibility: 8 miles, 13 km
Cloud details: Overcast 1400 ft
2024/05/24 08:51 KSMX 240851Z AUTO 28005KT 8SM OVC014 11/09 A2997 RMK AO2 SLP151 T01110089 58004
K9L2 - Edwards N-Aux, California, USA
Distance from station: SSE 299mi, 482km
Updated: Fri, 24-May-2024 2:55am MDT
Clear
Clear
 Wind from S
Wind: S 22 mph, 35 km/h, Gust: 28 mph, 44 km/h
Temperature: 59°F, 15°C
Dew Point: 46°F, 8°C
Humidity: 63%
Barometer: 29.82 inHg, 1009.8 hPa
Clouds: Clear
Visibility: 7 miles, 11 km
2024/05/24 08:55 K9L2 240855Z AUTO 19019G24KT 7SM CLR 15/08 A2982 RMK AO2 SLP076 T01510081 55002
CoCoRaHS (Community Collaborative Rain, Hail and Snow Network) Station Number: ID-GM-5 Live Lightning Map - USA Boise Skywarn Spotter ID: DO21 AlertID Southwestern Weather Network
Northwestern Weather Network


National Sex Offender Public Website

National Sex Offender Public Website





(Click on the Flag Counter logo below for details in new browser tab)
Flag Counter